createdAt,value
2023-04-24T00:00:11.370Z,98857.34
2023-04-24T00:02:41.193Z,98854.94
2023-04-24T00:05:10.867Z,98848.03
2023-04-24T00:07:39.158Z,98852.56
2023-04-24T00:10:10.979Z,98837.94
2023-04-24T00:12:39.552Z,98836.84
2023-04-24T00:15:09.967Z,98829.94
2023-04-24T00:17:38.392Z,98829.16
2023-04-24T00:20:08.369Z,98836.63
2023-04-24T00:22:36.738Z,98846.22
2023-04-24T00:25:06.412Z,98833.94
2023-04-24T00:27:37.703Z,98836.91
2023-04-24T00:30:08.234Z,98838.78
2023-04-24T00:32:36.606Z,98834.50
2023-04-24T00:35:06.849Z,98822.28
2023-04-24T00:37:35.826Z,98815.66
2023-04-24T00:40:04.926Z,98826.81
2023-04-24T00:42:34.953Z,98827.88
2023-04-24T00:45:04.896Z,98819.91
2023-04-24T00:47:34.070Z,98820.97
2023-04-24T00:50:06.501Z,98827.09
2023-04-24T00:52:34.908Z,98825.47
2023-04-24T00:55:03.382Z,98835.34
2023-04-24T00:57:32.646Z,98830.31
2023-04-24T01:00:02.433Z,98828.72
2023-04-24T01:02:31.056Z,98838.28
2023-04-24T01:04:59.892Z,98834.03
2023-04-24T01:07:28.452Z,98840.72
2023-04-24T01:09:56.801Z,98848.69
2023-04-24T01:12:27.017Z,98845.50
2023-04-24T01:14:55.732Z,98833.56
2023-04-24T01:17:25.592Z,98841.81
2023-04-24T01:19:55.059Z,98834.09
2023-04-24T01:22:25.039Z,98832.50
2023-04-24T01:24:54.123Z,98830.13
2023-04-24T01:27:22.822Z,98817.91
2023-04-24T01:29:52.944Z,98820.56
2023-04-24T01:32:22.101Z,98810.97
2023-04-24T01:34:51.451Z,98809.13
2023-04-24T01:37:19.888Z,98816.53
2023-04-24T01:39:49.628Z,98813.06
2023-04-24T01:42:18.960Z,98811.22
2023-04-24T01:44:49.690Z,98816.81
2023-04-24T01:47:18.186Z,98814.72
2023-04-24T01:49:48.194Z,98803.56
2023-04-24T01:52:17.402Z,98809.13
2023-04-24T01:54:45.794Z,98819.75
2023-04-24T01:57:16.534Z,98809.41
2023-04-24T01:59:45.183Z,98809.41
2023-04-24T02:02:13.659Z,98808.59
2023-04-24T02:04:42.135Z,98809.66
2023-04-24T02:07:10.533Z,98809.66
2023-04-24T02:09:38.971Z,98801.97
2023-04-24T02:12:08.020Z,98799.56
2023-04-24T02:14:37.759Z,98791.88
2023-04-24T02:17:07.668Z,98803.59
2023-04-24T02:19:38.648Z,98794.03
2023-04-24T02:22:09.425Z,98798.78
2023-04-24T02:24:37.695Z,98789.50
2023-04-24T02:27:06.208Z,98786.31
2023-04-24T02:29:34.790Z,98785.81
2023-04-24T02:32:04.928Z,98777.00
2023-04-24T02:34:33.268Z,98790.03
2023-04-24T02:37:01.791Z,98784.72
2023-04-24T02:39:30.181Z,98791.63
2023-04-24T02:41:59.130Z,98784.72
2023-04-24T02:44:27.456Z,98792.69
2023-04-24T02:46:55.831Z,98798.03
2023-04-24T02:49:27.037Z,98794.31
2023-04-24T02:51:55.953Z,98799.66
2023-04-24T02:54:24.367Z,98799.91
2023-04-24T02:56:52.678Z,98802.84
2023-04-24T02:59:21.233Z,98806.59
2023-04-24T03:01:49.726Z,98837.94
2023-04-24T03:04:21.461Z,98860.03
2023-04-24T03:06:55.740Z,98861.06
2023-04-24T03:09:24.438Z,98858.69
2023-04-24T03:11:52.814Z,98856.59
2023-04-24T03:14:21.252Z,98866.97
2023-04-24T03:16:49.614Z,98865.09
2023-04-24T03:19:18.049Z,98869.06
2023-04-24T03:21:59.357Z,98872.56
2023-04-24T03:24:29.011Z,98868.56
2023-04-24T03:26:58.234Z,98879.78
2023-04-24T03:29:56.091Z,98879.25
2023-04-24T03:32:28.884Z,98874.72
2023-04-24T03:34:57.224Z,98871.56
2023-04-24T03:37:27.506Z,98864.38
2023-04-24T03:40:09.992Z,98865.44
2023-04-24T03:42:40.122Z,98868.91
2023-04-24T03:45:13.182Z,98872.59
2023-04-24T03:47:44.740Z,98874.22
2023-04-24T03:50:13.582Z,98867.28
2023-04-24T03:52:45.376Z,98871.81
2023-04-24T03:55:22.293Z,98883.50
2023-04-24T03:57:50.831Z,98882.72
2023-04-24T04:00:24.052Z,98886.97
2023-04-24T04:03:05.095Z,98898.66
2023-04-24T04:05:34.093Z,98892.56
2023-04-24T04:08:03.803Z,98909.56
2023-04-24T04:10:32.101Z,98907.72
2023-04-24T04:13:01.123Z,98920.19
2023-04-24T04:15:29.562Z,98918.88
2023-04-24T04:17:57.962Z,98932.44
2023-04-24T04:20:26.588Z,98921.53
2023-04-24T04:22:55.510Z,98928.22
2023-04-24T04:25:35.405Z,98931.13
2023-04-24T04:28:04.117Z,98936.44
2023-04-24T04:30:33.183Z,98938.31
2023-04-24T04:33:05.162Z,98942.81
2023-04-24T04:35:34.649Z,98944.16
2023-04-24T04:38:02.967Z,98946.00
2023-04-24T04:40:47.522Z,98951.59
2023-04-24T04:43:17.600Z,98949.47
2023-04-24T04:45:52.559Z,98956.13
2023-04-24T04:48:39.518Z,98951.34
2023-04-24T04:51:09.255Z,98947.38
2023-04-24T04:53:38.372Z,98961.97
2023-04-24T04:56:08.907Z,98960.66
2023-04-24T04:58:42.158Z,98958.28
2023-04-24T05:01:14.420Z,98970.22
2023-04-24T05:03:46.676Z,98971.00
2023-04-24T05:06:18.096Z,98972.88
2023-04-24T05:08:47.449Z,98978.47
2023-04-24T05:11:30.673Z,98983.78
2023-04-24T05:13:59.973Z,98989.63
2023-04-24T05:16:38.013Z,98989.88
2023-04-24T05:19:07.865Z,98995.47
2023-04-24T05:21:41.268Z,98992.00
2023-04-24T05:24:10.884Z,98989.59
2023-04-24T05:26:53.505Z,98998.63
2023-04-24T05:29:27.475Z,99000.50
2023-04-24T05:31:56.414Z,98991.19
2023-04-24T05:34:25.466Z,99007.13
2023-04-24T05:36:57.251Z,99016.41
2023-04-24T05:39:26.084Z,99017.75
2023-04-24T05:41:59.034Z,99008.72
2023-04-24T05:44:27.449Z,99007.09
2023-04-24T05:46:57.015Z,99015.34
2023-04-24T05:49:25.825Z,99013.47
2023-04-24T05:51:54.942Z,99012.41
2023-04-24T05:54:24.299Z,99020.38
2023-04-24T05:56:55.488Z,99018.53
2023-04-24T05:59:40.897Z,99028.59
2023-04-24T06:02:10.259Z,99032.06
2023-04-24T06:04:38.952Z,99028.59
2023-04-24T06:07:07.520Z,99046.41
2023-04-24T06:09:36.385Z,99033.13
2023-04-24T06:12:05.292Z,99039.75
2023-04-24T06:14:49.451Z,99048.78
2023-04-24T06:17:25.283Z,99048.00
2023-04-24T06:19:53.745Z,99034.44
2023-04-24T06:22:24.297Z,99033.38
2023-04-24T06:24:52.684Z,99040.53
2023-04-24T06:27:21.072Z,99051.16
2023-04-24T06:29:55.286Z,99053.56
2023-04-24T06:32:25.106Z,99047.97
2023-04-24T06:34:54.359Z,99054.34
2023-04-24T06:37:22.861Z,99054.06
2023-04-24T06:39:51.215Z,99063.38
2023-04-24T06:42:21.796Z,99060.72
2023-04-24T06:44:53.157Z,99059.13
2023-04-24T06:47:21.616Z,99056.47
2023-04-24T06:49:51.901Z,99066.03
2023-04-24T06:52:20.557Z,99064.97
2023-04-24T06:54:49.262Z,99064.19
2023-04-24T06:57:18.197Z,99075.88
2023-04-24T06:59:46.518Z,99080.38
2023-04-24T07:02:16.317Z,99078.78
2023-04-24T07:04:44.789Z,99073.44
2023-04-24T07:07:15.307Z,99084.59
2023-04-24T07:09:45.573Z,99087.25
2023-04-24T07:12:14.522Z,99086.16
2023-04-24T07:14:42.931Z,99086.97
2023-04-24T07:17:11.513Z,99088.28
2023-04-24T07:19:41.439Z,99090.94
2023-04-24T07:22:09.992Z,99085.09
2023-04-24T07:24:38.610Z,99100.75
2023-04-24T07:27:07.173Z,99090.91
2023-04-24T07:29:36.583Z,99097.81
2023-04-24T07:32:05.594Z,99099.13
2023-04-24T07:34:34.054Z,99100.75
2023-04-24T07:37:04.505Z,99103.63
2023-04-24T07:39:32.952Z,99099.94
2023-04-24T07:42:02.535Z,99105.78
2023-04-24T07:44:31.121Z,99102.06
2023-04-24T07:46:59.574Z,99097.56
2023-04-24T07:49:28.928Z,99103.41
2023-04-24T07:51:57.299Z,99105.00
2023-04-24T07:54:27.127Z,99100.47
2023-04-24T07:56:55.501Z,99108.44
2023-04-24T07:59:23.883Z,99111.91
2023-04-24T08:01:52.205Z,99109.50
2023-04-24T08:04:21.641Z,99107.66
2023-04-24T08:06:50.426Z,99121.47
2023-04-24T08:09:18.744Z,99104.47
2023-04-24T08:11:48.406Z,99112.44
2023-04-24T08:14:16.832Z,99103.69
2023-04-24T08:16:45.301Z,99113.78
2023-04-24T08:19:13.668Z,99119.63
2023-04-24T08:21:42.002Z,99115.13
2023-04-24T08:24:10.324Z,99137.16
2023-04-24T08:26:38.694Z,99139.81
2023-04-24T08:29:08.868Z,99129.19
2023-04-24T08:31:37.439Z,99140.91
2023-04-24T08:34:06.191Z,99133.72
2023-04-24T08:36:46.032Z,99143.28
2023-04-24T08:39:15.486Z,99153.66
2023-04-24T08:41:46.404Z,99144.63
2023-04-24T08:44:17.274Z,99151.53
2023-04-24T08:46:48.641Z,99148.06
2023-04-24T08:49:18.474Z,99148.06
2023-04-24T08:51:48.117Z,99154.69
2023-04-24T08:54:16.545Z,99146.72
2023-04-24T08:56:47.237Z,99165.03
2023-04-24T08:59:17.596Z,99158.13
2023-04-24T09:01:47.702Z,99161.56
2023-04-24T09:04:19.248Z,99167.41
2023-04-24T09:06:47.931Z,99173.53
2023-04-24T09:09:18.145Z,99169.03
2023-04-24T09:11:46.932Z,99173.28
2023-04-24T09:14:16.698Z,99170.34
2023-04-24T09:16:45.371Z,99173.28
2023-04-24T09:19:13.987Z,99165.31
2023-04-24T09:21:44.900Z,99176.22
2023-04-24T09:24:19.391Z,99178.63
2023-04-24T09:26:47.871Z,99182.88
2023-04-24T09:29:21.267Z,99192.69
2023-04-24T09:31:49.669Z,99200.94
2023-04-24T09:34:23.993Z,99201.97
2023-04-24T09:36:53.077Z,99189.50
2023-04-24T09:39:21.992Z,99205.69
2023-04-24T09:41:52.005Z,99203.56
2023-04-24T09:44:23.747Z,99204.63
2023-04-24T09:46:54.561Z,99214.19
2023-04-24T09:49:26.778Z,99211.50
2023-04-24T09:52:04.981Z,99219.75
2023-04-24T09:54:34.124Z,99221.63
2023-04-24T09:57:02.975Z,99217.91
2023-04-24T09:59:33.194Z,99228.53
2023-04-24T10:02:03.073Z,99218.97
2023-04-24T10:04:31.661Z,99219.53
2023-04-24T10:07:00.859Z,99221.13
2023-04-24T10:09:29.396Z,99231.75
2023-04-24T10:11:57.876Z,99225.34
2023-04-24T10:14:27.464Z,99226.38
2023-04-24T10:16:58.935Z,99226.94
2023-04-24T10:19:28.859Z,99244.16
2023-04-24T10:21:58.418Z,99245.22
2023-04-24T10:24:26.969Z,99253.19
2023-04-24T10:26:55.548Z,99260.88
2023-04-24T10:29:23.872Z,99251.84
2023-04-24T10:31:52.218Z,99252.66
2023-04-24T10:34:24.375Z,99266.75
2023-04-24T10:36:57.836Z,99256.94
2023-04-24T10:39:27.765Z,99254.56
2023-04-24T10:41:58.421Z,99244.47
2023-04-24T10:44:27.760Z,99255.88
2023-04-24T10:46:57.974Z,99267.56
2023-04-24T10:49:32.731Z,99264.91
2023-04-24T10:52:06.625Z,99267.56
2023-04-24T10:54:39.064Z,99274.22
2023-04-24T10:57:33.788Z,99268.63
2023-04-24T11:00:21.857Z,99284.56
2023-04-24T11:02:53.615Z,99282.69
2023-04-24T11:05:54.122Z,99274.72
2023-04-24T11:08:32.463Z,99282.41
2023-04-24T11:11:05.292Z,99276.84
2023-04-24T11:14:09.211Z,99290.09
2023-04-24T11:16:54.009Z,99272.59
2023-04-24T11:19:26.169Z,99274.72
2023-04-24T11:22:02.712Z,99289.03
2023-04-24T11:24:41.187Z,99285.06
2023-04-24T11:27:20.743Z,99279.97
2023-04-24T11:29:51.473Z,99286.59
2023-04-24T11:32:26.322Z,99278.13
2023-04-24T11:34:56.608Z,99271.50
2023-04-24T11:37:29.563Z,99286.38
2023-04-24T11:40:00.630Z,99283.19
2023-04-24T11:42:30.465Z,99284.78
2023-04-24T11:44:59.142Z,99290.09
2023-04-24T11:47:32.076Z,99287.44
2023-04-24T11:50:01.641Z,99294.59
2023-04-24T11:52:32.689Z,99284.22
2023-04-24T11:55:01.792Z,99295.66
2023-04-24T11:57:34.612Z,99294.84
2023-04-24T12:00:04.533Z,99293.53
2023-04-24T12:02:40.831Z,99290.66
2023-04-24T12:05:10.548Z,99280.81
2023-04-24T12:07:44.880Z,99289.06
2023-04-24T12:10:13.379Z,99291.47
2023-04-24T12:12:43.793Z,99287.78
2023-04-24T12:15:13.510Z,99288.06
2023-04-24T12:17:44.791Z,99284.91
2023-04-24T12:20:14.794Z,99288.63
2023-04-24T12:22:49.185Z,99294.00
2023-04-24T12:25:18.718Z,99294.84
2023-04-24T12:27:48.403Z,99289.28
2023-04-24T12:30:18.761Z,99281.88
2023-04-24T12:32:49.310Z,99284.84
2023-04-24T12:35:23.359Z,99286.69
2023-04-24T12:37:53.134Z,99293.09
2023-04-24T12:40:23.970Z,99283.81
2023-04-24T12:42:54.113Z,99290.47
2023-04-24T12:45:24.912Z,99295.50
2023-04-24T12:47:53.413Z,99293.66
2023-04-24T12:50:22.602Z,99291.25
2023-04-24T12:52:52.496Z,99302.69
2023-04-24T12:55:20.940Z,99317.06
2023-04-24T12:57:49.654Z,99307.44
2023-04-24T13:00:20.280Z,99303.72
2023-04-24T13:02:49.140Z,99306.63
2023-04-24T13:05:18.118Z,99307.44
2023-04-24T13:07:46.655Z,99305.81
2023-04-24T13:10:16.580Z,99300.78
2023-04-24T13:12:46.601Z,99312.19
2023-04-24T13:15:15.527Z,99309.53
2023-04-24T13:17:43.915Z,99307.69
2023-04-24T13:20:12.746Z,99305.03
2023-04-24T13:22:41.100Z,99305.03
2023-04-24T13:25:11.263Z,99304.22
2023-04-24T13:27:42.111Z,99310.09
2023-04-24T13:30:12.030Z,99300.25
2023-04-24T13:32:40.645Z,99320.47
2023-04-24T13:35:11.692Z,99313.28
2023-04-24T13:37:40.110Z,99312.47
2023-04-24T13:40:10.139Z,99305.84
2023-04-24T13:42:38.600Z,99307.72
2023-04-24T13:45:23.781Z,99301.63
2023-04-24T13:47:54.904Z,99291.25
2023-04-24T13:50:24.055Z,99294.19
2023-04-24T13:52:52.452Z,99293.41
2023-04-24T13:55:24.644Z,99301.94
2023-04-24T13:58:07.598Z,99301.41
2023-04-24T14:00:37.338Z,99311.78
2023-04-24T14:03:06.226Z,99310.72
2023-04-24T14:05:35.816Z,99313.91
2023-04-24T14:08:05.091Z,99310.19
2023-04-24T14:10:33.456Z,99310.19
2023-04-24T14:13:05.000Z,99305.38
2023-04-24T14:15:33.410Z,99303.00
2023-04-24T14:18:05.724Z,99309.63
2023-04-24T14:20:34.706Z,99314.97
2023-04-24T14:23:03.080Z,99312.28
2023-04-24T14:25:34.358Z,99313.91
2023-04-24T14:28:02.797Z,99317.09
2023-04-24T14:30:31.591Z,99309.13
2023-04-24T14:32:59.931Z,99308.31
2023-04-24T14:35:32.382Z,99305.66
2023-04-24T14:38:01.214Z,99314.44
2023-04-24T14:40:58.376Z,99309.13
2023-04-24T14:43:17.995Z,99316.81
2023-04-24T14:45:46.432Z,99313.66
2023-04-24T14:48:15.053Z,99310.44
2023-04-24T14:50:44.827Z,99308.03
2023-04-24T14:53:13.225Z,99318.16
2023-04-24T14:55:41.575Z,99303.28
2023-04-24T14:58:10.019Z,99296.91
2023-04-24T15:00:38.374Z,99302.75
2023-04-24T15:03:07.021Z,99303.31
2023-04-24T15:05:35.726Z,99307.88
2023-04-24T15:08:05.862Z,99314.25
2023-04-24T15:10:34.270Z,99308.13
2023-04-24T15:13:02.735Z,99317.47
2023-04-24T15:15:31.088Z,99312.44
2023-04-24T15:17:59.516Z,99316.41
2023-04-24T15:20:27.998Z,99316.19
2023-04-24T15:22:56.613Z,99324.44
2023-04-24T15:25:26.384Z,99321.22
2023-04-24T15:27:54.808Z,99319.34
2023-04-24T15:30:23.352Z,99335.06
2023-04-24T15:32:51.946Z,99329.19
2023-04-24T15:35:20.493Z,99345.44
2023-04-24T15:37:48.906Z,99332.13
2023-04-24T15:40:19.153Z,99327.34
2023-04-24T15:42:48.920Z,99337.97
2023-04-24T15:45:17.252Z,99323.09
2023-04-24T15:47:48.144Z,99328.41
2023-04-24T15:50:17.493Z,99330.28
2023-04-24T15:52:46.365Z,99333.72
2023-04-24T15:55:15.084Z,99323.09
2023-04-24T15:57:44.700Z,99319.63
2023-04-24T16:00:16.196Z,99320.91
2023-04-24T16:02:44.667Z,99321.16
2023-04-24T16:05:13.087Z,99315.06
2023-04-24T16:07:41.412Z,99317.19
2023-04-24T16:10:12.021Z,99327.03
2023-04-24T16:12:40.876Z,99334.19
2023-04-24T16:15:10.174Z,99334.19
2023-04-24T16:17:39.987Z,99336.34
2023-04-24T16:20:10.947Z,99336.34
2023-04-24T16:22:40.475Z,99331.00
2023-04-24T16:25:10.599Z,99339.53
2023-04-24T16:27:39.277Z,99339.53
2023-04-24T16:30:09.497Z,99338.47
2023-04-24T16:32:39.235Z,99323.59
2023-04-24T16:35:08.253Z,99327.03
2023-04-24T16:37:36.750Z,99313.50
2023-04-24T16:40:10.594Z,99310.00
2023-04-24T16:42:39.442Z,99319.84
2023-04-24T16:45:09.852Z,99320.44
2023-04-24T16:47:39.608Z,99308.16
2023-04-24T16:50:08.788Z,99308.72
2023-04-24T16:52:37.167Z,99308.72
2023-04-24T16:55:06.436Z,99310.31
2023-04-24T16:57:34.893Z,99303.41
2023-04-24T17:00:06.298Z,99309.25
2023-04-24T17:03:01.220Z,99315.63
2023-04-24T17:05:29.726Z,99317.25
2023-04-24T17:07:58.169Z,99311.94
2023-04-24T17:10:26.536Z,99317.50
2023-04-24T17:12:55.605Z,99311.09
2023-04-24T17:15:24.134Z,99303.13
2023-04-24T17:17:52.596Z,99305.78
2023-04-24T17:20:23.925Z,99304.97
2023-04-24T17:22:52.654Z,99307.13
2023-04-24T17:25:47.334Z,99302.28
2023-04-24T17:28:27.446Z,99310.53
2023-04-24T17:30:58.165Z,99309.72
2023-04-24T17:33:27.413Z,99312.66
2023-04-24T17:35:58.080Z,99315.56
2023-04-24T17:38:26.950Z,99310.53
2023-04-24T17:40:55.416Z,99307.06
2023-04-24T17:43:24.715Z,99312.41
2023-04-24T17:45:56.055Z,99314.25
2023-04-24T17:48:24.595Z,99324.34
2023-04-24T17:50:52.925Z,99320.38
2023-04-24T17:53:22.931Z,99324.06
2023-04-24T17:55:51.484Z,99326.72
2023-04-24T17:58:20.550Z,99328.09
2023-04-24T18:00:48.927Z,99326.72
2023-04-24T18:03:17.527Z,99332.06
2023-04-24T18:05:46.007Z,99333.63
2023-04-24T18:08:14.404Z,99334.16
2023-04-24T18:10:44.977Z,99332.28
2023-04-24T18:13:13.449Z,99341.06
2023-04-24T18:15:43.464Z,99340.28
2023-04-24T18:18:12.187Z,99347.69
2023-04-24T18:20:40.645Z,99345.31
2023-04-24T18:23:09.151Z,99348.25
2023-04-24T18:25:37.553Z,99353.00
2023-04-24T18:28:07.399Z,99346.34
2023-04-24T18:30:35.867Z,99357.78
2023-04-24T18:33:04.388Z,99359.63
2023-04-24T18:35:32.821Z,99352.72
2023-04-24T18:38:01.187Z,99360.97
2023-04-24T18:40:29.613Z,99366.31
2023-04-24T18:42:58.208Z,99353.25
2023-04-24T18:45:27.989Z,99357.25
2023-04-24T18:47:56.474Z,99358.00
2023-04-24T18:50:25.756Z,99373.97
2023-04-24T18:52:54.227Z,99365.69
2023-04-24T18:55:22.691Z,99367.28
2023-04-24T18:57:51.189Z,99369.41
2023-04-24T19:00:20.131Z,99373.63
2023-04-24T19:02:50.434Z,99368.31
2023-04-24T19:05:19.117Z,99381.59
2023-04-24T19:07:47.460Z,99385.31
2023-04-24T19:10:16.705Z,99389.28
2023-04-24T19:12:45.364Z,99389.28
2023-04-24T19:15:13.897Z,99390.63
2023-04-24T19:17:42.300Z,99396.19
2023-04-24T19:20:13.230Z,99402.84
2023-04-24T19:22:41.894Z,99406.53
2023-04-24T19:25:10.754Z,99401.47
2023-04-24T19:27:39.207Z,99408.94
2023-04-24T19:30:09.539Z,99403.63
2023-04-24T19:32:37.976Z,99397.75
2023-04-24T19:35:07.261Z,99404.41
2023-04-24T19:37:40.339Z,99405.50
2023-04-24T19:40:10.767Z,99412.41
2023-04-24T19:42:43.994Z,99411.59
2023-04-24T19:45:13.592Z,99399.34
2023-04-24T19:47:42.066Z,99405.19
2023-04-24T19:50:12.692Z,99403.06
2023-04-24T19:52:42.442Z,99399.09
2023-04-24T19:55:11.465Z,99403.56
2023-04-24T19:57:39.789Z,99413.69
2023-04-24T20:00:10.048Z,99406.50
2023-04-24T20:02:38.592Z,99407.78
2023-04-24T20:05:08.862Z,99407.78
2023-04-24T20:07:37.421Z,99410.94
2023-04-24T20:10:08.983Z,99404.03
2023-04-24T20:12:37.398Z,99412.25
2023-04-24T20:15:07.177Z,99412.25
2023-04-24T20:17:35.538Z,99407.22
2023-04-24T20:20:04.145Z,99402.97
2023-04-24T20:22:35.394Z,99406.66
2023-04-24T20:25:04.042Z,99421.00
2023-04-24T20:27:33.702Z,99417.00
2023-04-24T20:30:02.096Z,99418.84
2023-04-24T20:32:30.597Z,99415.66
2023-04-24T20:34:59.226Z,99406.53
2023-04-24T20:37:29.216Z,99410.78
2023-04-24T20:39:58.428Z,99415.56
2023-04-24T20:42:26.896Z,99410.25
2023-04-24T20:44:56.796Z,99419.28
2023-04-24T20:47:25.144Z,99408.88
2023-04-24T20:49:53.994Z,99409.69
2023-04-24T20:52:22.335Z,99416.63
2023-04-24T20:54:50.691Z,99402.78
2023-04-24T20:57:19.156Z,99393.47
2023-04-24T20:59:47.489Z,99400.38
2023-04-24T21:02:17.379Z,99399.56
2023-04-24T21:04:46.026Z,99396.91
2023-04-24T21:07:15.395Z,99392.66
2023-04-24T21:09:43.818Z,99407.53
2023-04-24T21:12:12.231Z,99400.38
2023-04-24T21:14:40.674Z,99401.69
2023-04-24T21:17:09.000Z,99404.06
2023-04-24T21:19:39.035Z,99398.75
2023-04-24T21:22:07.377Z,99399.56
2023-04-24T21:24:35.714Z,99395.31
2023-04-24T21:27:04.297Z,99399.56
2023-04-24T21:29:34.367Z,99388.16
2023-04-24T21:32:03.179Z,99392.66
2023-04-24T21:34:31.515Z,99391.06
2023-04-24T21:37:01.226Z,99382.53
2023-04-24T21:39:29.621Z,99385.19
2023-04-24T21:41:58.474Z,99386.00
2023-04-24T21:44:27.545Z,99385.19
2023-04-24T21:46:55.916Z,99383.88
2023-04-24T21:49:24.244Z,99380.66
2023-04-24T21:51:52.640Z,99380.09
2023-04-24T21:54:22.490Z,99379.31
2023-04-24T21:56:50.975Z,99376.66
2023-04-24T21:59:19.712Z,99380.38
2023-04-24T22:01:48.212Z,99374.00
2023-04-24T22:04:16.747Z,99375.06
2023-04-24T22:06:45.220Z,99373.47
2023-04-24T22:09:13.582Z,99370.81
2023-04-24T22:11:43.285Z,99371.03
2023-04-24T22:14:11.725Z,99378.22
2023-04-24T22:16:41.653Z,99368.66
2023-04-24T22:19:10.331Z,99370.25
2023-04-24T22:21:40.598Z,99369.44
2023-04-24T22:24:09.487Z,99365.44
2023-04-24T22:26:37.826Z,99375.03
2023-04-24T22:29:07.639Z,99369.97
2023-04-24T22:31:36.182Z,99365.44
2023-04-24T22:34:04.804Z,99372.59
2023-04-24T22:36:33.955Z,99366.78
2023-04-24T22:39:02.367Z,99374.97
2023-04-24T22:41:30.842Z,99373.66
2023-04-24T22:43:59.228Z,99363.25
2023-04-24T22:46:31.185Z,99370.69
2023-04-24T22:48:59.583Z,99366.41
2023-04-24T22:51:29.685Z,99363.47
2023-04-24T22:53:58.048Z,99363.75
2023-04-24T22:56:26.591Z,99363.47
2023-04-24T22:58:55.016Z,99363.47
2023-04-24T23:01:23.489Z,99363.47
2023-04-24T23:03:53.709Z,99361.63
2023-04-24T23:06:22.511Z,99364.53
2023-04-24T23:08:50.946Z,99365.34
2023-04-24T23:11:20.014Z,99355.22
2023-04-24T23:13:49.208Z,99353.88
2023-04-24T23:16:17.744Z,99364.50
2023-04-24T23:18:46.181Z,99363.94
2023-04-24T23:21:16.244Z,99365.81
2023-04-24T23:23:44.716Z,99366.31
2023-04-24T23:26:13.014Z,99368.41
2023-04-24T23:28:41.770Z,99366.81
2023-04-24T23:31:10.130Z,99367.31
2023-04-24T23:33:38.425Z,99369.97
2023-04-24T23:36:07.557Z,99367.81
2023-04-24T23:38:47.196Z,99362.75
2023-04-24T23:41:18.944Z,99361.16
2023-04-24T23:43:47.569Z,99354.28
2023-04-24T23:46:16.129Z,99359.81
2023-04-24T23:48:44.395Z,99361.66
2023-04-24T23:51:12.764Z,99360.88
2023-04-24T23:53:42.600Z,99355.78
2023-04-24T23:56:10.957Z,99366.19
2023-04-24T23:58:39.283Z,99351.56
